createdAt,value
2023-02-22T00:00:53.000Z,9.10
2023-02-22T00:02:11.170Z,9.10
2023-02-22T00:03:18.141Z,9.10
2023-02-22T00:04:21.480Z,9.10
2023-02-22T00:05:24.985Z,9.10
2023-02-22T00:06:27.341Z,9.10
2023-02-22T00:07:29.586Z,9.10
2023-02-22T00:08:37.273Z,9.10
2023-02-22T00:09:39.593Z,9.10
2023-02-22T00:10:42.093Z,9.10
2023-02-22T00:11:48.964Z,9.10
2023-02-22T00:12:52.720Z,9.10
2023-02-22T00:13:58.363Z,9.10
2023-02-22T00:15:00.629Z,9.10
2023-02-22T00:16:03.263Z,9.10
2023-02-22T00:17:05.650Z,9.10
2023-02-22T00:18:10.478Z,9.10
2023-02-22T00:19:12.896Z,9.00
2023-02-22T00:20:19.955Z,9.00
2023-02-22T00:21:22.808Z,9.00
2023-02-22T00:22:25.063Z,9.00
2023-02-22T00:23:29.771Z,9.00
2023-02-22T00:24:33.032Z,9.00
2023-02-22T00:25:36.341Z,9.00
2023-02-22T00:26:39.188Z,8.90
2023-02-22T00:27:41.488Z,8.90
2023-02-22T00:28:45.852Z,8.90
2023-02-22T00:29:48.106Z,8.90
2023-02-22T00:30:51.391Z,8.90
2023-02-22T00:31:56.660Z,8.90
2023-02-22T00:32:59.738Z,8.90
2023-02-22T00:34:02.427Z,8.90
2023-02-22T00:35:08.303Z,9.00
2023-02-22T00:36:12.265Z,9.00
2023-02-22T00:37:14.527Z,9.00
2023-02-22T00:38:19.404Z,9.00
2023-02-22T00:39:21.701Z,9.00
2023-02-22T00:40:26.825Z,9.00
2023-02-22T00:41:29.110Z,9.00
2023-02-22T00:42:31.406Z,9.00
2023-02-22T00:43:34.035Z,9.00
2023-02-22T00:44:36.259Z,9.10
2023-02-22T00:45:38.661Z,9.10
2023-02-22T00:46:40.959Z,9.10
2023-02-22T00:47:43.224Z,9.10
2023-02-22T00:48:45.536Z,9.10
2023-02-22T00:49:47.825Z,9.10
2023-02-22T00:50:50.586Z,9.10
2023-02-22T00:51:52.850Z,9.10
2023-02-22T00:52:56.685Z,9.10
2023-02-22T00:53:59.721Z,9.10
2023-02-22T00:55:02.707Z,9.10
2023-02-22T00:56:05.330Z,9.10
2023-02-22T00:57:07.757Z,9.10
2023-02-22T00:58:10.136Z,9.10
2023-02-22T00:59:12.347Z,9.10
2023-02-22T01:00:23.610Z,9.10
2023-02-22T01:01:27.740Z,9.10
2023-02-22T01:02:30.630Z,9.10
2023-02-22T01:03:32.916Z,9.10
2023-02-22T01:04:35.246Z,9.10
2023-02-22T01:05:40.836Z,9.10
2023-02-22T01:06:43.399Z,9.10
2023-02-22T01:07:46.132Z,9.10
2023-02-22T01:08:50.850Z,9.10
2023-02-22T01:09:53.700Z,9.10
2023-02-22T01:10:56.509Z,9.10
2023-02-22T01:11:59.048Z,9.00
2023-02-22T01:13:02.022Z,9.10
2023-02-22T01:14:04.292Z,9.10
2023-02-22T01:15:10.452Z,9.10
2023-02-22T01:16:13.169Z,9.10
2023-02-22T01:17:15.652Z,9.10
2023-02-22T01:18:18.193Z,9.10
2023-02-22T01:19:22.058Z,9.00
2023-02-22T01:20:26.206Z,9.10
2023-02-22T01:21:28.488Z,9.10
2023-02-22T01:22:30.736Z,9.00
2023-02-22T01:23:33.026Z,9.00
2023-02-22T01:24:35.319Z,9.00
2023-02-22T01:25:37.640Z,9.00
2023-02-22T01:26:39.897Z,9.00
2023-02-22T01:27:42.870Z,9.00
2023-02-22T01:28:45.221Z,9.00
2023-02-22T01:29:50.063Z,9.00
2023-02-22T01:30:52.716Z,9.00
2023-02-22T01:31:56.610Z,9.00
2023-02-22T01:32:59.831Z,9.00
2023-02-22T01:34:02.060Z,9.00
2023-02-22T01:35:08.591Z,9.00
2023-02-22T01:36:11.569Z,9.00
2023-02-22T01:37:13.896Z,9.00
2023-02-22T01:38:16.224Z,8.90
2023-02-22T01:39:18.645Z,8.90
2023-02-22T01:40:27.800Z,8.90
2023-02-22T01:41:30.145Z,8.90
2023-02-22T01:42:34.236Z,8.90
2023-02-22T01:43:36.468Z,8.90
2023-02-22T01:44:41.513Z,8.90
2023-02-22T01:46:01.342Z,8.90
2023-02-22T01:47:06.037Z,8.90
2023-02-22T01:48:16.681Z,8.80
2023-02-22T01:49:18.997Z,8.80
2023-02-22T01:50:22.570Z,8.80
2023-02-22T01:51:29.531Z,8.80
2023-02-22T01:52:32.541Z,8.80
2023-02-22T01:54:00.045Z,8.80
2023-02-22T01:55:03.363Z,8.80
2023-02-22T01:56:06.597Z,8.80
2023-02-22T01:57:15.214Z,8.80
2023-02-22T01:58:19.164Z,8.80
2023-02-22T01:59:22.678Z,8.70
2023-02-22T02:00:27.643Z,8.70
2023-02-22T02:01:30.761Z,8.70
2023-02-22T02:02:33.132Z,8.70
2023-02-22T02:03:39.477Z,8.70
2023-02-22T02:04:42.896Z,8.70
2023-02-22T02:05:45.900Z,8.70
2023-02-22T02:06:48.929Z,8.70
2023-02-22T02:07:54.017Z,8.70
2023-02-22T02:09:05.872Z,8.70
2023-02-22T02:10:15.422Z,8.70
2023-02-22T02:11:25.571Z,8.70
2023-02-22T02:12:31.239Z,8.70
2023-02-22T02:13:34.054Z,8.70
2023-02-22T02:14:40.481Z,8.70
2023-02-22T02:15:43.072Z,8.70
2023-02-22T02:16:49.959Z,8.70
2023-02-22T02:17:54.249Z,8.70
2023-02-22T02:18:56.584Z,8.70
2023-02-22T02:20:15.910Z,8.70
2023-02-22T02:21:26.860Z,8.70
2023-02-22T02:22:51.816Z,8.80
2023-02-22T02:24:14.022Z,8.80
2023-02-22T02:25:31.409Z,8.70
2023-02-22T02:27:23.027Z,8.80
2023-02-22T02:28:58.569Z,8.70
2023-02-22T02:30:22.526Z,8.70
2023-02-22T02:31:54.079Z,8.70
2023-02-22T02:33:18.360Z,8.70
2023-02-22T02:34:53.037Z,8.70
2023-02-22T02:36:02.334Z,8.70
2023-02-22T02:37:19.847Z,8.70
2023-02-22T02:38:40.152Z,8.70
2023-02-22T02:40:00.737Z,8.70
2023-02-22T02:41:11.951Z,8.70
2023-02-22T02:42:18.480Z,8.60
2023-02-22T02:43:39.940Z,8.70
2023-02-22T02:44:51.224Z,8.70
2023-02-22T02:45:56.035Z,8.70
2023-02-22T02:47:11.249Z,8.70
2023-02-22T02:48:15.760Z,8.70
2023-02-22T02:49:31.063Z,8.70
2023-02-22T02:50:42.692Z,8.70
2023-02-22T02:51:52.326Z,8.70
2023-02-22T02:53:01.220Z,8.70
2023-02-22T02:54:04.434Z,8.70
2023-02-22T02:55:08.323Z,8.70
2023-02-22T02:56:10.780Z,8.70
2023-02-22T02:57:13.668Z,8.70
2023-02-22T02:58:22.521Z,8.70
2023-02-22T02:59:27.614Z,8.70
2023-02-22T03:00:39.243Z,8.70
2023-02-22T03:01:56.122Z,8.70
2023-02-22T03:03:10.784Z,8.70
2023-02-22T03:04:35.003Z,8.70
2023-02-22T03:06:05.187Z,8.60
2023-02-22T03:07:17.341Z,8.60
2023-02-22T03:09:06.378Z,8.60
2023-02-22T03:10:30.037Z,8.60
2023-02-22T03:11:48.419Z,8.60
2023-02-22T03:12:59.445Z,8.60
2023-02-22T03:14:11.740Z,8.60
2023-02-22T03:15:30.030Z,8.60
2023-02-22T03:16:37.096Z,8.60
2023-02-22T03:18:01.892Z,8.60
2023-02-22T03:19:18.803Z,8.60
2023-02-22T03:20:31.880Z,8.60
2023-02-22T03:21:48.602Z,8.60
2023-02-22T03:23:01.486Z,8.60
2023-02-22T03:24:03.725Z,8.50
2023-02-22T03:25:10.467Z,8.60
2023-02-22T03:26:24.025Z,8.50
2023-02-22T03:27:35.056Z,8.60
2023-02-22T03:28:42.544Z,8.60
2023-02-22T03:29:47.042Z,8.60
2023-02-22T03:30:57.080Z,8.50
2023-02-22T03:32:01.540Z,8.60
2023-02-22T03:33:13.076Z,8.50
2023-02-22T03:34:26.158Z,8.50
2023-02-22T03:35:34.881Z,8.60
2023-02-22T03:36:45.584Z,8.60
2023-02-22T03:37:55.027Z,8.60
2023-02-22T03:39:00.392Z,8.50
2023-02-22T03:40:14.076Z,8.60
2023-02-22T03:41:26.679Z,8.50
2023-02-22T03:42:33.126Z,8.50
2023-02-22T03:43:41.646Z,8.50
2023-02-22T03:44:49.850Z,8.50
2023-02-22T03:45:53.018Z,8.60
2023-02-22T03:46:57.879Z,8.50
2023-02-22T03:48:11.565Z,8.50
2023-02-22T03:49:20.230Z,8.50
2023-02-22T03:50:29.942Z,8.50
2023-02-22T03:51:32.749Z,8.50
2023-02-22T03:52:37.542Z,8.50
2023-02-22T03:53:48.158Z,8.50
2023-02-22T03:54:55.412Z,8.50
2023-02-22T03:56:00.023Z,8.50
2023-02-22T03:57:12.249Z,8.50
2023-02-22T03:58:20.642Z,8.50
2023-02-22T03:59:27.595Z,8.50
2023-02-22T04:00:32.542Z,8.50
2023-02-22T04:01:36.061Z,8.50
2023-02-22T04:02:38.482Z,8.50
2023-02-22T04:03:42.270Z,8.50
2023-02-22T04:04:46.054Z,8.50
2023-02-22T04:05:48.836Z,8.50
2023-02-22T04:06:52.612Z,8.50
2023-02-22T04:07:56.478Z,8.50
2023-02-22T04:08:59.070Z,8.50
2023-02-22T04:10:03.286Z,8.50
2023-02-22T04:11:06.691Z,8.50
2023-02-22T04:12:09.259Z,8.50
2023-02-22T04:13:27.502Z,8.60
2023-02-22T04:14:30.149Z,8.60
2023-02-22T04:15:33.450Z,8.60
2023-02-22T04:16:39.848Z,8.60
2023-02-22T04:17:44.652Z,8.60
2023-02-22T04:18:49.544Z,8.60
2023-02-22T04:19:55.291Z,8.60
2023-02-22T04:20:59.551Z,8.60
2023-02-22T04:22:15.426Z,8.60
2023-02-22T04:23:17.774Z,8.60
2023-02-22T04:24:20.038Z,8.70
2023-02-22T04:25:24.032Z,8.60
2023-02-22T04:26:27.751Z,8.60
2023-02-22T04:27:32.629Z,8.70
2023-02-22T04:28:35.381Z,8.70
2023-02-22T04:30:04.354Z,8.70
2023-02-22T04:31:09.333Z,8.70
2023-02-22T04:32:11.625Z,8.70
2023-02-22T04:33:16.209Z,8.70
2023-02-22T04:34:18.536Z,8.60
2023-02-22T04:35:20.848Z,8.60
2023-02-22T04:36:23.166Z,8.70
2023-02-22T04:37:25.475Z,8.70
2023-02-22T04:38:28.471Z,8.70
2023-02-22T04:39:32.961Z,8.70
2023-02-22T04:40:35.475Z,8.70
2023-02-22T04:41:37.924Z,8.70
2023-02-22T04:42:42.271Z,8.70
2023-02-22T04:43:45.123Z,8.70
2023-02-22T04:44:58.223Z,8.70
2023-02-22T04:46:00.557Z,8.70
2023-02-22T04:47:03.051Z,8.70
2023-02-22T04:48:05.459Z,8.70
2023-02-22T04:49:07.725Z,8.70
2023-02-22T04:50:13.067Z,8.70
2023-02-22T04:51:16.186Z,8.70
2023-02-22T04:52:31.870Z,8.70
2023-02-22T04:53:34.484Z,8.80
2023-02-22T04:54:36.836Z,8.80
2023-02-22T04:55:39.154Z,8.70
2023-02-22T04:56:41.467Z,8.80
2023-02-22T04:57:43.871Z,8.70
2023-02-22T04:58:46.792Z,8.70
2023-02-22T04:59:49.182Z,8.70
2023-02-22T05:00:51.920Z,8.70
2023-02-22T05:01:54.403Z,8.70
2023-02-22T05:02:56.751Z,8.70
2023-02-22T05:03:59.224Z,8.70
2023-02-22T05:05:01.585Z,8.70
2023-02-22T05:06:04.146Z,8.60
2023-02-22T05:07:06.409Z,8.70
2023-02-22T05:08:08.830Z,8.60
2023-02-22T05:09:11.123Z,8.60
2023-02-22T05:10:14.274Z,8.60
2023-02-22T05:11:16.736Z,8.60
2023-02-22T05:12:19.138Z,8.70
2023-02-22T05:13:21.528Z,8.60
2023-02-22T05:14:26.834Z,8.70
2023-02-22T05:15:29.070Z,8.60
2023-02-22T05:16:31.468Z,8.70
2023-02-22T05:17:34.450Z,8.60
2023-02-22T05:18:36.696Z,8.70
2023-02-22T05:19:38.980Z,8.70
2023-02-22T05:20:41.273Z,8.70
2023-02-22T05:21:43.587Z,8.60
2023-02-22T05:22:45.859Z,8.70
2023-02-22T05:23:48.211Z,8.60
2023-02-22T05:24:52.386Z,8.70
2023-02-22T05:25:54.624Z,8.60
2023-02-22T05:26:56.880Z,8.60
2023-02-22T05:28:05.878Z,8.60
2023-02-22T05:29:08.209Z,8.60
2023-02-22T05:30:11.938Z,8.60
2023-02-22T05:31:14.359Z,8.60
2023-02-22T05:32:16.712Z,8.70
2023-02-22T05:33:19.034Z,8.60
2023-02-22T05:34:21.268Z,8.60
2023-02-22T05:35:23.954Z,8.60
2023-02-22T05:36:26.421Z,8.60
2023-02-22T05:37:28.715Z,8.60
2023-02-22T05:38:30.964Z,8.60
2023-02-22T05:39:33.367Z,8.60
2023-02-22T05:40:35.662Z,8.50
2023-02-22T05:41:38.039Z,8.50
2023-02-22T05:42:41.538Z,8.50
2023-02-22T05:43:43.857Z,8.50
2023-02-22T05:44:46.146Z,8.40
2023-02-22T05:45:48.438Z,8.40
2023-02-22T05:46:50.813Z,8.40
2023-02-22T05:47:54.619Z,8.30
2023-02-22T05:48:58.729Z,8.30
2023-02-22T05:50:02.980Z,8.30
2023-02-22T05:51:05.599Z,8.30
2023-02-22T05:52:07.825Z,8.30
2023-02-22T05:53:10.553Z,8.30
2023-02-22T05:54:12.841Z,8.30
2023-02-22T05:55:18.023Z,8.30
2023-02-22T05:56:22.283Z,8.40
2023-02-22T05:57:24.511Z,8.40
2023-02-22T05:58:26.853Z,8.40
2023-02-22T05:59:30.307Z,8.40
2023-02-22T06:00:32.970Z,8.40
2023-02-22T06:01:35.353Z,8.40
2023-02-22T06:02:37.676Z,8.50
2023-02-22T06:03:39.915Z,8.50
2023-02-22T06:04:45.756Z,8.50
2023-02-22T06:05:48.243Z,8.50
2023-02-22T06:06:50.571Z,8.50
2023-02-22T06:07:53.899Z,8.50
2023-02-22T06:08:56.202Z,8.50
2023-02-22T06:09:58.459Z,8.50
2023-02-22T06:11:00.737Z,8.50
2023-02-22T06:12:03.827Z,8.50
2023-02-22T06:13:06.495Z,8.50
2023-02-22T06:14:08.879Z,8.50
2023-02-22T06:15:11.255Z,8.50
2023-02-22T06:16:13.586Z,8.50
2023-02-22T06:17:16.376Z,8.50
2023-02-22T06:18:18.768Z,8.50
2023-02-22T06:19:21.136Z,8.50
2023-02-22T06:20:25.419Z,8.50
2023-02-22T06:21:27.759Z,8.40
2023-02-22T06:22:30.025Z,8.50
2023-02-22T06:23:32.304Z,8.40
2023-02-22T06:24:34.902Z,8.50
2023-02-22T06:25:37.198Z,8.50
2023-02-22T06:26:39.470Z,8.50
2023-02-22T06:27:41.805Z,8.50
2023-02-22T06:28:44.104Z,8.50
2023-02-22T06:29:47.021Z,8.50
2023-02-22T06:30:49.319Z,8.50
2023-02-22T06:31:52.045Z,8.50
2023-02-22T06:32:54.830Z,8.50
2023-02-22T06:33:58.768Z,8.50
2023-02-22T06:35:02.802Z,8.60
2023-02-22T06:36:05.438Z,8.60
2023-02-22T06:37:08.475Z,8.60
2023-02-22T06:38:10.811Z,8.60
2023-02-22T06:39:15.289Z,8.60
2023-02-22T06:40:17.825Z,8.60
2023-02-22T06:41:20.934Z,8.70
2023-02-22T06:42:24.110Z,8.70
2023-02-22T06:43:26.566Z,8.70
2023-02-22T06:44:28.834Z,8.70
2023-02-22T06:45:31.412Z,8.70
2023-02-22T06:46:33.860Z,8.70
2023-02-22T06:47:42.194Z,8.70
2023-02-22T06:48:44.583Z,8.70
2023-02-22T06:49:55.470Z,8.70
2023-02-22T06:50:58.003Z,8.80
2023-02-22T06:52:00.328Z,8.80
2023-02-22T06:53:02.588Z,8.80
2023-02-22T06:54:06.134Z,8.80
2023-02-22T06:55:08.389Z,8.80
2023-02-22T06:56:10.654Z,8.80
2023-02-22T06:57:13.684Z,8.80
2023-02-22T06:58:16.061Z,8.80
2023-02-22T06:59:18.495Z,8.80
2023-02-22T07:00:23.319Z,8.80
2023-02-22T07:01:25.882Z,8.90
2023-02-22T07:02:28.110Z,8.90
2023-02-22T07:03:30.724Z,8.90
2023-02-22T07:04:33.050Z,8.90
2023-02-22T07:05:35.303Z,8.90
2023-02-22T07:06:37.849Z,8.90
2023-02-22T07:07:40.496Z,8.90
2023-02-22T07:08:42.745Z,8.90
2023-02-22T07:09:47.029Z,8.90
2023-02-22T07:10:50.487Z,8.90
2023-02-22T07:11:53.051Z,9.00
2023-02-22T07:12:55.897Z,9.00
2023-02-22T07:13:58.113Z,9.00
2023-02-22T07:15:01.976Z,9.00
2023-02-22T07:16:04.447Z,9.00
2023-02-22T07:17:08.221Z,9.00
2023-02-22T07:18:10.579Z,9.00
2023-02-22T07:19:13.003Z,9.00
2023-02-22T07:20:15.612Z,9.00
2023-02-22T07:21:19.169Z,9.00
2023-02-22T07:22:21.537Z,9.00
2023-02-22T07:23:24.356Z,9.00
2023-02-22T07:24:28.578Z,9.10
2023-02-22T07:25:31.294Z,9.00
2023-02-22T07:26:40.766Z,9.00
2023-02-22T07:27:43.946Z,9.00
2023-02-22T07:28:47.044Z,9.00
2023-02-22T07:29:49.865Z,9.00
2023-02-22T07:30:52.147Z,9.00
2023-02-22T07:31:54.463Z,9.00
2023-02-22T07:32:58.862Z,9.00
2023-02-22T07:34:02.319Z,9.10
2023-02-22T07:35:04.705Z,9.10
2023-02-22T07:36:07.360Z,9.10
2023-02-22T07:37:10.151Z,9.10
2023-02-22T07:38:13.690Z,9.10
2023-02-22T07:39:15.961Z,9.10
2023-02-22T07:40:19.160Z,9.20
2023-02-22T07:41:22.970Z,9.20
2023-02-22T07:42:25.221Z,9.20
2023-02-22T07:43:29.499Z,9.20
2023-02-22T07:44:34.182Z,9.20
2023-02-22T07:45:36.547Z,9.20
2023-02-22T07:46:39.127Z,9.20
2023-02-22T07:47:41.417Z,9.20
2023-02-22T07:48:43.724Z,9.20
2023-02-22T07:49:45.989Z,9.20
2023-02-22T07:50:48.977Z,9.30
2023-02-22T07:51:51.304Z,9.30
2023-02-22T07:52:55.808Z,9.30
2023-02-22T07:53:58.068Z,9.30
2023-02-22T07:55:01.833Z,9.30
2023-02-22T07:56:05.748Z,9.30
2023-02-22T07:57:08.070Z,9.30
2023-02-22T07:58:17.638Z,9.30
2023-02-22T07:59:21.764Z,9.30
2023-02-22T08:00:29.221Z,9.30
2023-02-22T08:01:32.010Z,9.40
2023-02-22T08:02:34.276Z,9.40
2023-02-22T08:03:38.024Z,9.40
2023-02-22T08:04:40.376Z,9.40
2023-02-22T08:05:46.545Z,9.40
2023-02-22T08:06:49.871Z,9.50
2023-02-22T08:07:52.412Z,9.50
2023-02-22T08:08:54.647Z,9.50
2023-02-22T08:09:56.871Z,9.50
2023-02-22T08:10:59.279Z,9.60
2023-02-22T08:12:01.539Z,9.60
2023-02-22T08:13:05.499Z,9.60
2023-02-22T08:14:07.804Z,9.60
2023-02-22T08:15:16.717Z,9.60
2023-02-22T08:16:18.965Z,9.60
2023-02-22T08:17:21.313Z,9.60
2023-02-22T08:18:24.910Z,9.60
2023-02-22T08:19:27.151Z,9.60
2023-02-22T08:20:30.346Z,9.70
2023-02-22T08:21:32.845Z,9.60
2023-02-22T08:22:35.161Z,9.60
2023-02-22T08:23:38.875Z,9.70
2023-02-22T08:24:41.159Z,9.60
2023-02-22T08:25:43.425Z,9.70
2023-02-22T08:26:47.310Z,9.70
2023-02-22T08:27:49.598Z,9.70
2023-02-22T08:28:51.882Z,9.70
2023-02-22T08:29:55.193Z,9.70
2023-02-22T08:30:57.477Z,9.70
2023-02-22T08:32:00.626Z,9.80
2023-02-22T08:33:04.121Z,9.80
2023-02-22T08:34:06.838Z,9.80
2023-02-22T08:35:09.121Z,9.90
2023-02-22T08:36:11.412Z,9.90
2023-02-22T08:37:15.111Z,10.00
2023-02-22T08:38:24.749Z,9.90
2023-02-22T08:39:27.000Z,10.00
2023-02-22T08:40:32.304Z,10.00
2023-02-22T08:41:34.569Z,10.00
2023-02-22T08:42:36.868Z,10.10
2023-02-22T08:43:39.175Z,10.10
2023-02-22T08:44:41.420Z,10.10
2023-02-22T08:45:45.682Z,10.10
2023-02-22T08:46:47.986Z,10.10
2023-02-22T08:47:51.213Z,10.10
2023-02-22T08:48:54.017Z,10.10
2023-02-22T08:49:56.443Z,10.20
2023-02-22T08:50:59.630Z,10.20
2023-02-22T08:52:01.956Z,10.20
2023-02-22T08:53:05.842Z,10.20
2023-02-22T08:54:08.097Z,10.30
2023-02-22T08:55:11.158Z,10.30
2023-02-22T08:56:13.516Z,10.30
2023-02-22T08:57:15.861Z,10.30
2023-02-22T08:58:18.213Z,10.40
2023-02-22T08:59:20.444Z,10.40
2023-02-22T09:00:26.126Z,10.40
2023-02-22T09:01:33.508Z,10.40
2023-02-22T09:02:35.998Z,10.50
2023-02-22T09:03:38.674Z,10.50
2023-02-22T09:04:40.982Z,10.50
2023-02-22T09:05:44.492Z,10.50
2023-02-22T09:06:51.834Z,10.60
2023-02-22T09:07:54.273Z,10.60
2023-02-22T09:08:56.558Z,10.70
2023-02-22T09:10:01.838Z,10.70
2023-02-22T09:11:04.286Z,10.70
2023-02-22T09:12:06.806Z,10.70
2023-02-22T09:13:09.085Z,10.70
2023-02-22T09:14:11.362Z,10.70
2023-02-22T09:15:15.008Z,10.70
2023-02-22T09:16:17.319Z,10.70
2023-02-22T09:17:19.659Z,10.80
2023-02-22T09:18:22.717Z,10.70
2023-02-22T09:19:24.957Z,10.70
2023-02-22T09:20:28.536Z,10.80
2023-02-22T09:21:31.682Z,10.80
2023-02-22T09:22:33.947Z,10.80
2023-02-22T09:23:36.530Z,10.80
2023-02-22T09:24:38.771Z,10.80
2023-02-22T09:25:41.147Z,10.80
2023-02-22T09:26:47.320Z,10.80
2023-02-22T09:27:53.422Z,10.80
2023-02-22T09:28:55.932Z,10.80
2023-02-22T09:29:58.726Z,10.80
2023-02-22T09:31:01.190Z,10.90
2023-02-22T09:32:04.485Z,10.90
2023-02-22T09:33:15.735Z,10.90
2023-02-22T09:34:22.755Z,10.90
2023-02-22T09:35:27.446Z,10.90
2023-02-22T09:36:30.159Z,10.90
2023-02-22T09:37:33.102Z,11.00
2023-02-22T09:38:36.336Z,11.00
2023-02-22T09:39:39.369Z,11.00
2023-02-22T09:40:46.084Z,11.00
2023-02-22T09:41:48.335Z,11.00
2023-02-22T09:43:31.284Z,11.10
2023-02-22T09:44:36.357Z,11.10
2023-02-22T09:45:45.132Z,11.20
2023-02-22T09:46:49.562Z,11.20
2023-02-22T09:48:15.263Z,11.20
2023-02-22T09:49:38.411Z,11.30
2023-02-22T09:50:44.334Z,11.30
2023-02-22T09:52:02.662Z,11.30
2023-02-22T09:53:04.998Z,11.30
2023-02-22T09:54:21.573Z,11.30
2023-02-22T09:55:34.127Z,11.30
2023-02-22T09:56:37.343Z,11.40
2023-02-22T09:57:42.985Z,11.40
2023-02-22T09:58:48.913Z,11.40
2023-02-22T10:00:12.926Z,11.40
2023-02-22T10:01:39.149Z,11.50
2023-02-22T10:02:54.428Z,11.50
2023-02-22T10:04:11.396Z,11.50
2023-02-22T10:05:34.262Z,11.60
2023-02-22T10:06:38.934Z,11.60
2023-02-22T10:07:45.794Z,11.60
2023-02-22T10:08:50.215Z,11.60
2023-02-22T10:09:56.611Z,11.60
2023-02-22T10:11:24.651Z,11.60
2023-02-22T10:12:55.710Z,11.70
2023-02-22T10:14:15.640Z,11.70
2023-02-22T10:15:32.194Z,11.70
2023-02-22T10:16:46.433Z,11.80
2023-02-22T10:17:59.580Z,11.80
2023-02-22T10:19:22.537Z,11.80
2023-02-22T10:21:11.566Z,11.90
2023-02-22T10:22:16.604Z,11.90
2023-02-22T10:23:38.993Z,11.90
2023-02-22T10:25:04.950Z,11.90
2023-02-22T10:26:24.005Z,12.00
2023-02-22T10:27:34.283Z,12.00
2023-02-22T10:28:44.438Z,12.00
2023-02-22T10:29:53.127Z,12.00
2023-02-22T10:31:00.378Z,12.00
2023-02-22T10:32:05.471Z,11.90
2023-02-22T10:33:07.767Z,12.00
2023-02-22T10:34:26.228Z,12.00
2023-02-22T10:35:32.874Z,12.00
2023-02-22T10:36:39.149Z,12.00
2023-02-22T10:37:41.481Z,12.00
2023-02-22T10:39:00.143Z,12.00
2023-02-22T10:40:13.995Z,12.00
2023-02-22T10:41:26.274Z,12.00
2023-02-22T10:42:29.960Z,12.00
2023-02-22T10:43:32.848Z,12.10
2023-02-22T10:44:36.544Z,12.10
2023-02-22T10:45:38.918Z,12.10
2023-02-22T10:46:43.117Z,12.10
2023-02-22T10:47:46.814Z,12.10
2023-02-22T10:48:52.560Z,12.10
2023-02-22T10:49:58.512Z,12.10
2023-02-22T10:51:02.542Z,12.20
2023-02-22T10:52:11.197Z,12.20
2023-02-22T10:53:17.771Z,12.20
2023-02-22T10:54:41.806Z,12.30
2023-02-22T10:56:07.280Z,12.30
2023-02-22T10:57:12.216Z,12.30
2023-02-22T10:58:14.524Z,12.40
2023-02-22T10:59:28.957Z,12.40
2023-02-22T11:00:33.487Z,12.40
2023-02-22T11:01:40.829Z,12.40
2023-02-22T11:02:58.738Z,12.40
2023-02-22T11:04:04.581Z,12.40
2023-02-22T11:05:06.970Z,12.40
2023-02-22T11:06:20.078Z,12.40
2023-02-22T11:07:32.214Z,12.40
2023-02-22T11:08:34.483Z,12.40
2023-02-22T11:09:50.207Z,12.40
2023-02-22T11:10:58.295Z,12.40
2023-02-22T11:12:16.552Z,12.50
2023-02-22T11:13:38.447Z,12.50
2023-02-22T11:14:41.139Z,12.50
2023-02-22T11:15:44.941Z,12.50
2023-02-22T11:16:51.224Z,12.40
2023-02-22T11:17:57.475Z,12.40
2023-02-22T11:19:25.894Z,12.40
2023-02-22T11:20:35.616Z,12.30
2023-02-22T11:21:38.827Z,12.30
2023-02-22T11:22:42.580Z,12.30
2023-02-22T11:23:45.168Z,12.20
2023-02-22T11:25:07.691Z,12.20
2023-02-22T11:26:16.458Z,12.20
2023-02-22T11:27:43.911Z,12.20
2023-02-22T11:28:56.118Z,12.20
2023-02-22T11:30:12.289Z,12.20
2023-02-22T11:31:18.865Z,12.20
2023-02-22T11:32:22.530Z,12.30
2023-02-22T11:33:27.070Z,12.30
2023-02-22T11:34:39.520Z,12.30
2023-02-22T11:35:54.317Z,12.30
2023-02-22T11:36:57.192Z,12.40
2023-02-22T11:38:22.754Z,12.40
2023-02-22T11:39:28.538Z,12.50
2023-02-22T11:40:30.905Z,12.50
2023-02-22T11:41:34.984Z,12.50
2023-02-22T11:42:37.225Z,12.50
2023-02-22T11:43:39.525Z,12.50
2023-02-22T11:44:44.978Z,12.50
2023-02-22T11:46:04.752Z,12.50
2023-02-22T11:47:12.256Z,12.50
2023-02-22T11:48:21.028Z,12.50
2023-02-22T11:49:35.468Z,12.50
2023-02-22T11:51:04.884Z,12.50
2023-02-22T11:52:31.958Z,12.40
2023-02-22T11:53:34.249Z,12.40
2023-02-22T11:54:55.158Z,12.30
2023-02-22T11:56:05.931Z,12.30
2023-02-22T11:57:22.196Z,12.30
2023-02-22T11:58:44.166Z,12.30
2023-02-22T11:59:58.767Z,12.20
2023-02-22T12:01:07.225Z,12.20
2023-02-22T12:02:51.976Z,12.20
2023-02-22T12:04:36.399Z,12.20
2023-02-22T12:05:47.677Z,12.20
2023-02-22T12:07:08.492Z,12.20
2023-02-22T12:08:29.564Z,12.20
2023-02-22T12:09:52.820Z,12.20
2023-02-22T12:11:01.306Z,12.20
2023-02-22T12:12:15.709Z,12.30
2023-02-22T12:13:28.226Z,12.30
2023-02-22T12:14:42.036Z,12.40
2023-02-22T12:15:47.655Z,12.40
2023-02-22T12:17:04.986Z,12.40
2023-02-22T12:18:42.540Z,12.40
2023-02-22T12:19:50.144Z,12.40
2023-02-22T12:20:59.203Z,12.40
2023-02-22T12:22:10.057Z,12.40
2023-02-22T12:23:12.966Z,12.40
2023-02-22T12:24:42.241Z,12.30
2023-02-22T12:25:58.609Z,12.30
2023-02-22T12:27:11.594Z,12.30
2023-02-22T12:28:25.142Z,12.30
2023-02-22T12:29:43.733Z,12.30
2023-02-22T12:30:52.777Z,12.30
2023-02-22T12:32:04.939Z,12.40
2023-02-22T12:33:14.249Z,12.40
2023-02-22T12:34:41.326Z,12.40
2023-02-22T12:35:51.682Z,12.40
2023-02-22T12:37:34.590Z,12.40
2023-02-22T12:38:39.584Z,12.40
2023-02-22T12:39:55.707Z,12.30
2023-02-22T12:41:25.176Z,12.20
2023-02-22T12:43:05.545Z,12.20
2023-02-22T12:44:18.216Z,12.10
2023-02-22T12:45:38.517Z,12.20
2023-02-22T12:46:44.312Z,12.10
2023-02-22T12:48:04.217Z,12.10
2023-02-22T12:49:36.425Z,12.10
2023-02-22T12:50:38.876Z,12.10
2023-02-22T12:51:56.848Z,12.20
2023-02-22T12:53:14.571Z,12.20
2023-02-22T12:54:28.870Z,12.20
2023-02-22T12:55:45.660Z,12.30
2023-02-22T12:56:59.312Z,12.40
2023-02-22T12:58:36.651Z,12.40
2023-02-22T12:59:52.058Z,12.50
2023-02-22T13:01:15.020Z,12.50
2023-02-22T13:02:32.920Z,12.60
2023-02-22T13:03:39.037Z,12.60
2023-02-22T13:04:41.769Z,12.60
2023-02-22T13:05:51.802Z,12.60
2023-02-22T13:06:54.026Z,12.60
2023-02-22T13:08:21.401Z,12.60
2023-02-22T13:09:49.229Z,12.60
2023-02-22T13:11:01.533Z,12.60
2023-02-22T13:12:09.720Z,12.50
2023-02-22T13:13:19.941Z,12.50
2023-02-22T13:15:00.473Z,12.50
2023-02-22T13:16:45.797Z,12.50
2023-02-22T13:18:19.031Z,12.50
2023-02-22T13:19:21.579Z,12.50
2023-02-22T13:20:31.893Z,12.50
2023-02-22T13:21:34.219Z,12.50
2023-02-22T13:22:52.957Z,12.50
2023-02-22T13:24:05.240Z,12.50
2023-02-22T13:25:34.896Z,12.60
2023-02-22T13:26:47.659Z,12.60
2023-02-22T13:28:10.909Z,12.70
2023-02-22T13:29:37.878Z,12.70
2023-02-22T13:30:47.417Z,12.70
2023-02-22T13:32:02.807Z,12.60
2023-02-22T13:33:23.379Z,12.60
2023-02-22T13:34:40.177Z,12.60
2023-02-22T13:35:58.747Z,12.50
2023-02-22T13:37:38.217Z,12.50
2023-02-22T13:39:08.871Z,12.50
2023-02-22T13:40:24.628Z,12.50
2023-02-22T13:41:56.566Z,12.50
2023-02-22T13:43:16.673Z,12.50
2023-02-22T13:45:04.096Z,12.60
2023-02-22T13:46:40.476Z,12.60
2023-02-22T13:48:03.707Z,12.70
2023-02-22T13:49:25.729Z,12.70
2023-02-22T13:50:58.671Z,12.80
2023-02-22T13:52:27.833Z,12.80
2023-02-22T13:53:50.159Z,12.80
2023-02-22T13:54:59.185Z,12.70
2023-02-22T13:56:01.627Z,12.80
2023-02-22T13:57:17.488Z,12.70
2023-02-22T13:58:21.020Z,12.70
2023-02-22T13:59:36.133Z,12.60
2023-02-22T14:00:49.659Z,12.60
2023-02-22T14:01:55.600Z,12.60
2023-02-22T14:03:01.440Z,12.50
2023-02-22T14:04:28.178Z,12.50
2023-02-22T14:05:42.590Z,12.40
2023-02-22T14:06:45.854Z,12.40
2023-02-22T14:07:49.058Z,12.40
2023-02-22T14:08:51.301Z,12.30
2023-02-22T14:09:59.209Z,12.30
2023-02-22T14:11:14.180Z,12.20
2023-02-22T14:12:33.393Z,12.20
2023-02-22T14:14:12.135Z,12.20
2023-02-22T14:15:29.707Z,12.20
2023-02-22T14:16:34.029Z,12.20
2023-02-22T14:17:40.888Z,12.20
2023-02-22T14:18:49.459Z,12.20
2023-02-22T14:20:02.110Z,12.20
2023-02-22T14:21:13.224Z,12.20
2023-02-22T14:22:27.057Z,12.20
2023-02-22T14:23:52.660Z,12.30
2023-02-22T14:24:54.947Z,12.20
2023-02-22T14:26:08.904Z,12.20
2023-02-22T14:27:12.163Z,12.10
2023-02-22T14:28:39.595Z,12.20
2023-02-22T14:29:57.788Z,12.10
2023-02-22T14:31:06.220Z,12.20
2023-02-22T14:32:15.159Z,12.20
2023-02-22T14:33:53.391Z,12.20
2023-02-22T14:35:00.311Z,12.20
2023-02-22T14:36:04.060Z,12.20
2023-02-22T14:37:20.882Z,12.20
2023-02-22T14:38:25.159Z,12.20
2023-02-22T14:39:38.295Z,12.20
2023-02-22T14:40:42.660Z,12.20
2023-02-22T14:42:18.036Z,12.10
2023-02-22T14:43:23.875Z,12.00
2023-02-22T14:44:33.241Z,12.00
2023-02-22T14:45:45.616Z,12.00
2023-02-22T14:46:50.199Z,12.00
2023-02-22T14:48:01.307Z,11.90
2023-02-22T14:49:05.694Z,11.90
2023-02-22T14:50:32.262Z,11.90
2023-02-22T14:51:59.711Z,11.80
2023-02-22T14:53:20.630Z,11.80
2023-02-22T14:54:31.861Z,11.70
2023-02-22T14:55:41.127Z,11.60
2023-02-22T14:56:52.514Z,11.50